الصفحة الرئيسية
METAR-TAF:

METAR-TAF

مطار :

إيركوتسك, روسيا

دائرة عرض: 52-16N, خط طول: 104-19E, ارتفاع: 513 متر

مراقبة الطقس الحالي

تاريخ ووقت الإصدار 43 دقيقة قبل الساعة 06:30UTC
رياح هادئة
درجة الحرارة -23°درجة مئوية
الرطوبة 52%
ضغط 1026 hPa
الرؤية 10 كم أو أكثر
الغيوم لا تقل 1500 م ولا وجود لمزنة ركامية السحاب الأسود

METAR: UIII 190630Z 00000MPS CAVOK M23/M30 Q1026 R12/810560 NOSIG RMK QFE727/0969

زمن: 15:13 (07:13 UTC)

توقعات

تاريخ ووقت الإصدار 2ساعات و 13 دقيقة قبل الساعة 05:00UTC
التوقعات صالحة من19 الساعة 06 UTC إلى 20 الساعة 06 UTC
ريح 2 عقدةمن اتجاهات متغيرة
الرؤية 10 كم أو أكثر
أصبح
من 19 الساعة 18 UTC إلى 19 الساعة 20 UTC
ريح 16 عقدة من الغرب/الشمال الغربي تتزايد حتى 25 عقدة
غيوم متفرقة على ارتفاع 1100 قدم, مزنة ركامية.
مؤقت
من 19 الساعة 20 UTC إلى 20 الساعة 06 UTC
ريح 21 عقدة من الشمال الغربي تتزايد حتى 31 عقدة

TAF: UIII 190500Z 1906/2006 VRB01MPS 9999 NSC BECMG 1918/1920 30008G13MPS SCT011CB TEMPO 1920/2006 32011G16MPS

أرصاد الطقس والتوقعات من أكثر من 4000 مطار (تقارير الطقس للمطار METAR والتنبؤ بالطقس بالمطارTAF).

المحطات المتاحة هي النقط الصفراء والحمراء على الخريطة.

حرك المؤشر فوق النقطة لمعرفة اسم المحطة.

ثم انقر لمعرفة أرصاد وتوقعات الطقس.

لتغيير الخارطة: اضغط على الأزرار الخضراء مع رمز الصليب الأسود للتكبير. على الزر الأخضر مع شرطة للتصغير، أو على الأسهم الخضراء للخرائط المجاورة.


METAR-TAF: